createdAt,value
2022-09-18T00:01:28.169Z,2.28
2022-09-18T00:03:57.404Z,21.83
2022-09-18T00:06:26.438Z,2.33
2022-09-18T00:08:54.622Z,3.97
2022-09-18T00:11:24.058Z,7.45
2022-09-18T00:13:51.191Z,531.25
2022-09-18T00:16:20.018Z,414.63
2022-09-18T00:18:46.568Z,429.70
2022-09-18T00:21:18.981Z,427.58
2022-09-18T00:23:46.121Z,488.52
2022-09-18T00:26:14.662Z,466.55
2022-09-18T00:28:41.331Z,455.55
2022-09-18T00:31:14.064Z,435.67
2022-09-18T00:33:40.781Z,417.95
2022-09-18T00:36:10.326Z,412.65
2022-09-18T00:38:37.455Z,403.17
2022-09-18T00:41:08.063Z,409.45
2022-09-18T00:43:37.082Z,407.45
2022-09-18T00:46:22.288Z,393.35
2022-09-18T00:48:57.660Z,381.20
2022-09-18T00:51:25.839Z,371.00
2022-09-18T00:54:07.991Z,352.80
2022-09-18T00:56:35.315Z,358.52
2022-09-18T00:59:02.407Z,370.98
2022-09-18T01:01:29.002Z,364.10
2022-09-18T01:03:55.525Z,349.98
2022-09-18T01:06:42.596Z,351.20
2022-09-18T01:09:25.134Z,475.90
2022-09-18T01:12:33.238Z,337.70
2022-09-18T01:15:22.308Z,303.92
2022-09-18T01:18:12.123Z,300.80
2022-09-18T01:20:53.478Z,294.65
2022-09-18T01:23:23.138Z,298.73
2022-09-18T01:26:01.531Z,297.42
2022-09-18T01:28:35.993Z,279.98
2022-09-18T01:31:08.716Z,281.45
2022-09-18T01:33:38.148Z,259.55
2022-09-18T01:36:09.297Z,259.08
2022-09-18T01:38:41.170Z,247.90
2022-09-18T01:41:38.317Z,236.45
2022-09-18T01:44:14.364Z,279.92
2022-09-18T01:46:44.408Z,264.08
2022-09-18T01:49:14.619Z,275.10
2022-09-18T01:51:55.741Z,278.98
2022-09-18T01:54:27.147Z,275.38
2022-09-18T01:57:18.717Z,308.65
2022-09-18T02:00:09.565Z,300.88
2022-09-18T02:03:02.678Z,314.35
2022-09-18T02:05:37.789Z,314.92
2022-09-18T02:08:30.147Z,313.85
2022-09-18T02:11:06.569Z,312.17
2022-09-18T02:13:40.037Z,318.40
2022-09-18T02:16:13.400Z,320.27
2022-09-18T02:18:45.818Z,319.63
2022-09-18T02:21:16.983Z,318.17
2022-09-18T02:23:44.427Z,320.58
2022-09-18T02:26:13.954Z,316.70
2022-09-18T02:28:41.810Z,323.10
2022-09-18T02:31:08.626Z,328.02
2022-09-18T02:33:36.850Z,328.60
2022-09-18T02:36:09.534Z,326.83
2022-09-18T02:38:59.634Z,322.67
2022-09-18T02:41:47.470Z,324.80
2022-09-18T02:44:18.609Z,314.75
2022-09-18T02:47:01.616Z,318.33
2022-09-18T02:49:59.693Z,313.83
2022-09-18T02:52:46.338Z,309.10
2022-09-18T02:55:18.809Z,309.20
2022-09-18T02:58:18.949Z,310.80
2022-09-18T03:00:47.717Z,296.40
2022-09-18T03:03:15.615Z,294.85
2022-09-18T03:05:42.142Z,303.25
2022-09-18T03:08:08.665Z,300.75
2022-09-18T03:10:35.151Z,364.17
2022-09-18T03:13:01.615Z,304.73
2022-09-18T03:15:28.177Z,303.98
2022-09-18T03:17:54.642Z,308.17
2022-09-18T03:20:21.311Z,307.05
2022-09-18T03:22:47.790Z,307.23
2022-09-18T03:25:15.413Z,311.25
2022-09-18T03:27:42.966Z,316.63
2022-09-18T03:30:10.174Z,312.92
2022-09-18T03:32:36.655Z,310.38
2022-09-18T03:35:03.201Z,313.20
2022-09-18T03:37:29.664Z,306.08
2022-09-18T03:39:56.186Z,305.42
2022-09-18T03:42:22.771Z,319.38
2022-09-18T03:44:49.329Z,319.50
2022-09-18T03:47:15.784Z,322.13
2022-09-18T03:49:42.279Z,314.90
2022-09-18T03:52:08.755Z,389.15
2022-09-18T03:54:35.200Z,301.15
2022-09-18T03:57:01.692Z,311.17
2022-09-18T03:59:28.155Z,315.88
2022-09-18T04:01:54.774Z,306.35
2022-09-18T04:04:21.265Z,304.25
2022-09-18T04:06:47.750Z,312.30
2022-09-18T04:09:14.270Z,308.13
2022-09-18T04:11:40.777Z,308.67
2022-09-18T04:14:07.238Z,303.00
2022-09-18T04:16:34.219Z,302.73
2022-09-18T04:19:00.761Z,306.70
2022-09-18T04:21:27.236Z,310.60
2022-09-18T04:23:53.749Z,312.58
2022-09-18T04:26:20.223Z,306.05
2022-09-18T04:28:46.739Z,315.00
2022-09-18T04:31:13.439Z,307.77
2022-09-18T04:33:39.997Z,309.83
2022-09-18T04:36:07.058Z,310.77
2022-09-18T04:38:33.734Z,315.75
2022-09-18T04:41:00.784Z,310.95
2022-09-18T04:43:28.227Z,318.05
2022-09-18T04:45:55.298Z,344.15
2022-09-18T04:48:22.716Z,319.83
2022-09-18T04:50:49.702Z,327.60
2022-09-18T04:53:16.611Z,315.98
2022-09-18T04:55:44.962Z,329.58
2022-09-18T04:58:12.594Z,326.98
2022-09-18T05:00:39.379Z,319.90
2022-09-18T05:03:07.071Z,328.35
2022-09-18T05:05:33.786Z,319.25
2022-09-18T05:08:01.459Z,321.83
2022-09-18T05:10:28.260Z,335.13
2022-09-18T05:12:54.838Z,331.15
2022-09-18T05:15:22.223Z,346.90
2022-09-18T05:17:48.745Z,370.38
2022-09-18T05:20:15.375Z,363.88
2022-09-18T05:22:47.045Z,361.42
2022-09-18T05:25:13.597Z,349.27
2022-09-18T05:27:40.106Z,343.83
2022-09-18T05:30:07.433Z,347.73
2022-09-18T05:32:33.975Z,338.33
2022-09-18T05:35:01.000Z,358.73
2022-09-18T05:37:27.494Z,345.85
2022-09-18T05:39:54.032Z,333.08
2022-09-18T05:42:20.679Z,287.70
2022-09-18T05:44:47.303Z,302.95
2022-09-18T05:47:13.856Z,309.35
2022-09-18T05:49:40.337Z,312.05
2022-09-18T05:52:06.804Z,325.08
2022-09-18T05:54:36.185Z,281.65
2022-09-18T05:57:02.684Z,263.02
2022-09-18T05:59:29.373Z,247.93
2022-09-18T06:01:56.053Z,199.43
2022-09-18T06:04:22.593Z,231.73
2022-09-18T06:06:49.064Z,192.95
2022-09-18T06:09:15.550Z,189.10
2022-09-18T06:11:42.102Z,201.75
2022-09-18T06:14:09.018Z,176.63
2022-09-18T06:16:39.900Z,175.15
2022-09-18T06:19:08.615Z,106.40
2022-09-18T06:21:35.361Z,100.30
2022-09-18T06:24:02.079Z,96.47
2022-09-18T06:26:28.816Z,83.97
2022-09-18T06:28:55.292Z,77.43
2022-09-18T06:31:21.810Z,69.80
2022-09-18T06:33:49.151Z,63.67
2022-09-18T06:36:16.377Z,66.72
2022-09-18T06:38:42.878Z,83.72
2022-09-18T06:41:10.361Z,70.47
2022-09-18T06:43:36.902Z,67.97
2022-09-18T06:46:04.538Z,64.85
2022-09-18T06:48:31.619Z,70.30
2022-09-18T06:50:59.545Z,50.95
2022-09-18T06:53:26.437Z,42.13
2022-09-18T06:55:53.355Z,42.67
2022-09-18T06:58:20.301Z,40.45
2022-09-18T07:00:46.925Z,39.70
2022-09-18T07:03:13.574Z,35.70
2022-09-18T07:05:47.918Z,39.25
2022-09-18T07:08:14.520Z,39.20
2022-09-18T07:10:41.200Z,37.50
2022-09-18T07:13:07.789Z,36.63
2022-09-18T07:15:34.827Z,39.50
2022-09-18T07:18:03.178Z,42.35
2022-09-18T07:20:30.009Z,40.20
2022-09-18T07:22:58.831Z,39.83
2022-09-18T07:25:27.111Z,39.50
2022-09-18T07:27:54.016Z,37.55
2022-09-18T07:30:21.613Z,38.00
2022-09-18T07:32:48.953Z,34.75
2022-09-18T07:35:15.458Z,32.35
2022-09-18T07:37:41.957Z,32.28
2022-09-18T07:40:09.694Z,30.05
2022-09-18T07:42:36.397Z,29.55
2022-09-18T07:45:03.709Z,31.92
2022-09-18T07:47:30.225Z,28.42
2022-09-18T07:49:56.808Z,30.35
2022-09-18T07:52:23.382Z,28.75
2022-09-18T07:54:49.951Z,46.22
2022-09-18T07:57:16.476Z,35.47
2022-09-18T07:59:43.017Z,38.60
2022-09-18T08:02:11.484Z,38.20
2022-09-18T08:04:38.041Z,35.92
2022-09-18T08:07:04.570Z,41.08
2022-09-18T08:09:31.282Z,42.33
2022-09-18T08:11:58.210Z,39.33
2022-09-18T08:14:28.726Z,41.78
2022-09-18T08:16:55.934Z,45.33
2022-09-18T08:19:22.519Z,42.53
2022-09-18T08:21:49.085Z,42.20
2022-09-18T08:24:17.421Z,38.35
2022-09-18T08:26:44.377Z,38.30
2022-09-18T08:29:10.884Z,32.75
2022-09-18T08:31:37.513Z,29.17
2022-09-18T08:34:04.160Z,36.42
2022-09-18T08:36:30.661Z,32.72
2022-09-18T08:38:57.335Z,35.25
2022-09-18T08:41:43.004Z,40.70
2022-09-18T08:44:24.408Z,34.95
2022-09-18T08:47:01.962Z,32.50
2022-09-18T08:50:02.879Z,35.30
2022-09-18T08:52:34.145Z,32.90
2022-09-18T08:55:09.483Z,36.47
2022-09-18T08:57:38.960Z,32.33
2022-09-18T09:00:16.091Z,33.20
2022-09-18T09:02:50.625Z,32.30
2022-09-18T09:08:32.810Z,29.20
2022-09-18T09:11:51.934Z,30.58
2022-09-18T09:14:55.510Z,34.17
2022-09-18T09:17:35.641Z,30.42
2022-09-18T09:20:11.330Z,27.48
2022-09-18T09:23:02.104Z,26.95
2022-09-18T09:25:40.663Z,32.55
2022-09-18T09:28:19.807Z,33.17
2022-09-18T09:30:52.411Z,26.85
2022-09-18T09:33:31.116Z,30.90
2022-09-18T09:36:07.190Z,25.23
2022-09-18T09:38:39.398Z,26.73
2022-09-18T09:41:22.769Z,25.67
2022-09-18T09:43:56.883Z,27.25
2022-09-18T09:46:47.310Z,26.75
2022-09-18T09:49:25.138Z,24.92
2022-09-18T09:51:56.595Z,26.67
2022-09-18T09:54:23.352Z,26.20
2022-09-18T09:57:15.171Z,27.30
2022-09-18T09:59:46.357Z,24.92
2022-09-18T10:02:36.860Z,25.50
2022-09-18T10:05:25.686Z,30.42
2022-09-18T10:08:13.094Z,30.65
2022-09-18T10:10:58.134Z,30.80
2022-09-18T10:13:31.024Z,34.75
2022-09-18T10:16:12.854Z,29.95
2022-09-18T10:18:46.054Z,26.65
2022-09-18T10:21:21.282Z,29.55
2022-09-18T10:23:53.078Z,31.83
2022-09-18T10:26:34.763Z,39.30
2022-09-18T10:29:02.369Z,28.25
2022-09-18T10:31:53.705Z,30.13
2022-09-18T10:34:40.874Z,26.30
2022-09-18T10:37:29.375Z,26.00
2022-09-18T10:40:01.499Z,25.80
2022-09-18T10:42:36.480Z,27.27
2022-09-18T10:45:20.103Z,26.98
2022-09-18T10:47:46.662Z,25.10
2022-09-18T10:50:13.305Z,29.48
2022-09-18T10:52:41.782Z,27.17
2022-09-18T10:55:08.367Z,24.70
2022-09-18T10:57:40.471Z,24.00
2022-09-18T11:00:13.162Z,22.42
2022-09-18T11:02:45.707Z,26.30
2022-09-18T11:05:39.854Z,24.65
2022-09-18T11:08:19.284Z,22.77
2022-09-18T11:10:51.427Z,24.98
2022-09-18T11:13:25.971Z,24.02
2022-09-18T11:18:27.303Z,23.58
2022-09-18T11:20:57.180Z,23.10
2022-09-18T11:23:37.641Z,24.13
2022-09-18T11:26:12.302Z,24.73
2022-09-18T11:28:39.877Z,23.80
2022-09-18T11:31:15.870Z,24.77
2022-09-18T11:33:49.622Z,24.58
2022-09-18T11:36:24.714Z,24.20
2022-09-18T11:38:53.034Z,25.52
2022-09-18T11:41:40.527Z,24.73
2022-09-18T11:44:22.847Z,23.35
2022-09-18T11:46:52.208Z,22.65
2022-09-18T11:49:44.424Z,24.10
2022-09-18T11:52:16.034Z,25.80
2022-09-18T11:54:52.737Z,24.95
2022-09-18T11:57:41.991Z,22.98
2022-09-18T12:00:28.166Z,24.33
2022-09-18T12:03:13.067Z,24.20
2022-09-18T12:05:39.577Z,25.70
2022-09-18T12:08:27.191Z,26.65
2022-09-18T12:11:12.561Z,28.13
2022-09-18T12:13:45.731Z,29.70
2022-09-18T12:16:37.298Z,31.27
2022-09-18T12:19:12.837Z,35.70
2022-09-18T12:22:09.366Z,32.97
2022-09-18T12:24:35.978Z,31.70
2022-09-18T12:27:27.984Z,33.60
2022-09-18T12:30:00.406Z,27.95
2022-09-18T12:33:04.617Z,27.40
2022-09-18T12:36:00.131Z,33.83
2022-09-18T12:38:41.752Z,34.50
2022-09-18T12:41:45.876Z,30.50
2022-09-18T12:44:48.439Z,33.63
2022-09-18T12:47:33.518Z,28.98
2022-09-18T12:50:22.187Z,29.20
2022-09-18T12:53:26.185Z,30.95
2022-09-18T12:56:17.771Z,32.63
2022-09-18T12:59:16.283Z,27.55
2022-09-18T13:01:45.635Z,28.45
2022-09-18T13:04:47.166Z,27.85
2022-09-18T13:07:21.094Z,26.42
2022-09-18T13:10:28.519Z,27.35
2022-09-18T13:13:12.260Z,30.00
2022-09-18T13:15:46.438Z,37.80
2022-09-18T13:18:26.267Z,33.85
2022-09-18T13:20:55.636Z,34.50
2022-09-18T13:23:28.729Z,30.92
2022-09-18T13:25:57.398Z,31.20
2022-09-18T13:28:25.884Z,33.15
2022-09-18T13:31:14.092Z,30.75
2022-09-18T13:33:51.905Z,28.92
2022-09-18T13:36:28.641Z,29.52
2022-09-18T13:38:59.707Z,30.13
2022-09-18T13:41:27.346Z,26.25
2022-09-18T13:43:55.409Z,27.23
2022-09-18T13:46:40.579Z,25.65
2022-09-18T13:49:37.400Z,28.17
2022-09-18T13:52:31.738Z,29.65
2022-09-18T13:55:02.282Z,29.17
2022-09-18T13:57:30.440Z,38.22
2022-09-18T14:00:07.983Z,44.50
2022-09-18T14:02:37.164Z,47.00
2022-09-18T14:05:39.785Z,51.70
2022-09-18T14:08:30.178Z,29.30
2022-09-18T14:11:14.972Z,37.13
2022-09-18T14:13:47.516Z,38.17
2022-09-18T14:16:26.999Z,39.00
2022-09-18T14:18:58.395Z,37.15
2022-09-18T14:21:38.959Z,34.38
2022-09-18T14:24:27.389Z,30.10
2022-09-18T14:27:21.534Z,47.65
2022-09-18T14:29:49.235Z,53.13
2022-09-18T14:32:18.773Z,37.80
2022-09-18T14:34:45.434Z,29.88
2022-09-18T14:37:17.785Z,28.85
2022-09-18T14:39:45.137Z,28.77
2022-09-18T14:42:13.847Z,27.60
2022-09-18T14:44:47.759Z,28.60
2022-09-18T14:47:21.353Z,25.55
2022-09-18T14:49:49.250Z,27.85
2022-09-18T14:52:25.537Z,23.77
2022-09-18T14:54:54.658Z,26.90
2022-09-18T14:57:28.842Z,30.45
2022-09-18T14:59:58.554Z,35.70
2022-09-18T15:02:36.437Z,49.10
2022-09-18T15:05:10.617Z,45.58
2022-09-18T15:07:39.922Z,43.17
2022-09-18T15:10:09.401Z,45.17
2022-09-18T15:12:37.087Z,42.63
2022-09-18T15:15:44.054Z,31.23
2022-09-18T15:18:27.537Z,30.65
2022-09-18T15:20:56.848Z,30.02
2022-09-18T15:23:26.812Z,28.38
2022-09-18T15:25:56.689Z,27.60
2022-09-18T15:28:26.840Z,31.30
2022-09-18T15:30:59.401Z,35.47
2022-09-18T15:33:27.440Z,40.00
2022-09-18T15:35:55.838Z,40.70
2022-09-18T15:38:36.235Z,40.42
2022-09-18T15:41:22.062Z,43.80
2022-09-18T15:43:50.357Z,44.22
2022-09-18T15:46:25.976Z,39.03
2022-09-18T15:48:53.040Z,43.15
2022-09-18T15:51:28.982Z,39.25
2022-09-18T15:54:10.532Z,35.05
2022-09-18T15:56:39.881Z,29.55
2022-09-18T15:59:38.655Z,27.17
2022-09-18T16:02:29.173Z,24.10
2022-09-18T16:04:56.340Z,25.33
2022-09-18T16:07:28.072Z,24.42
2022-09-18T16:09:55.031Z,24.92
2022-09-18T16:12:30.378Z,24.17
2022-09-18T16:15:16.903Z,23.38
2022-09-18T16:17:46.289Z,23.98
2022-09-18T16:20:41.362Z,23.85
2022-09-18T16:23:28.243Z,24.25
2022-09-18T16:26:30.743Z,24.10
2022-09-18T16:29:01.324Z,26.88
2022-09-18T16:31:33.363Z,30.60
2022-09-18T16:34:03.198Z,32.67
2022-09-18T16:36:31.235Z,32.17
2022-09-18T16:39:01.441Z,31.73
2022-09-18T16:41:29.646Z,32.25
2022-09-18T16:43:56.480Z,31.15
2022-09-18T16:46:31.340Z,32.03
2022-09-18T16:48:57.893Z,29.10
2022-09-18T16:51:24.371Z,29.27
2022-09-18T16:53:50.918Z,30.63
2022-09-18T16:56:24.842Z,32.08
2022-09-18T16:58:52.257Z,35.47
2022-09-18T17:01:23.128Z,32.10
2022-09-18T17:03:50.786Z,32.25
2022-09-18T17:06:18.984Z,34.45
2022-09-18T17:08:46.920Z,33.67
2022-09-18T17:11:13.722Z,35.88
2022-09-18T17:13:40.246Z,35.13
2022-09-18T17:16:06.982Z,36.22
2022-09-18T17:18:34.984Z,33.50
2022-09-18T17:21:02.979Z,33.75
2022-09-18T17:23:30.675Z,34.92
2022-09-18T17:26:09.066Z,32.35
2022-09-18T17:28:36.884Z,30.27
2022-09-18T17:31:18.388Z,27.80
2022-09-18T17:33:45.730Z,27.45
2022-09-18T17:36:14.753Z,28.40
2022-09-18T17:38:42.295Z,27.95
2022-09-18T17:41:11.997Z,31.98
2022-09-18T17:43:39.549Z,31.63
2022-09-18T17:46:08.666Z,35.90
2022-09-18T17:48:35.253Z,41.53
2022-09-18T17:51:04.764Z,44.50
2022-09-18T17:53:33.474Z,49.42
2022-09-18T17:56:00.911Z,49.75
2022-09-18T17:58:28.697Z,51.65
2022-09-18T18:00:56.165Z,54.45
2022-09-18T18:03:23.155Z,56.95
2022-09-18T18:05:51.720Z,58.30
2022-09-18T18:08:18.696Z,60.67
2022-09-18T18:10:45.816Z,60.72
2022-09-18T18:13:13.417Z,60.08
2022-09-18T18:15:40.158Z,56.72
2022-09-18T18:18:07.477Z,56.80
2022-09-18T18:20:34.106Z,50.60
2022-09-18T18:23:00.644Z,40.75
2022-09-18T18:25:27.251Z,33.15
2022-09-18T18:27:57.054Z,31.70
2022-09-18T18:30:24.642Z,28.63
2022-09-18T18:32:52.038Z,26.45
2022-09-18T18:35:19.650Z,26.20
2022-09-18T18:37:46.667Z,25.20
2022-09-18T18:40:13.397Z,23.55
2022-09-18T18:42:39.929Z,23.98
2022-09-18T18:45:07.246Z,24.67
2022-09-18T18:47:33.982Z,27.83
2022-09-18T18:50:00.553Z,29.30
2022-09-18T18:52:27.082Z,32.47
2022-09-18T18:54:53.622Z,35.28
2022-09-18T18:57:21.612Z,35.10
2022-09-18T18:59:48.093Z,38.70
2022-09-18T19:02:14.691Z,38.30
2022-09-18T19:04:43.053Z,41.67
2022-09-18T19:07:10.817Z,40.67
2022-09-18T19:09:37.299Z,39.80
2022-09-18T19:12:04.148Z,41.65
2022-09-18T19:14:33.282Z,42.45
2022-09-18T19:17:00.121Z,42.58
2022-09-18T19:19:28.395Z,43.38
2022-09-18T19:21:59.517Z,43.78
2022-09-18T19:24:27.001Z,44.97
2022-09-18T19:26:54.049Z,43.47
2022-09-18T19:29:21.945Z,43.53
2022-09-18T19:31:49.306Z,44.03
2022-09-18T19:34:18.857Z,43.58
2022-09-18T19:36:47.185Z,42.78
2022-09-18T19:39:13.794Z,42.83
2022-09-18T19:41:49.058Z,43.67
2022-09-18T19:44:33.624Z,42.50
2022-09-18T19:47:06.616Z,44.58
2022-09-18T19:49:37.190Z,43.30
2022-09-18T19:52:13.853Z,42.30
2022-09-18T19:54:40.335Z,43.72
2022-09-18T19:57:06.822Z,43.35
2022-09-18T19:59:33.330Z,44.10
2022-09-18T20:01:59.894Z,43.63
2022-09-18T20:04:29.008Z,44.13
2022-09-18T20:06:55.482Z,43.33
2022-09-18T20:09:22.470Z,43.13
2022-09-18T20:11:49.207Z,45.45
2022-09-18T20:14:16.050Z,44.92
2022-09-18T20:16:42.534Z,47.58
2022-09-18T20:19:09.010Z,44.58
2022-09-18T20:21:35.523Z,43.67
2022-09-18T20:24:02.193Z,43.58
2022-09-18T20:26:28.994Z,42.92
2022-09-18T20:28:55.620Z,42.90
2022-09-18T20:31:23.911Z,41.78
2022-09-18T20:33:57.570Z,43.97
2022-09-18T20:36:25.651Z,42.25
2022-09-18T20:38:57.815Z,41.88
2022-09-18T20:41:28.062Z,41.55
2022-09-18T20:43:54.939Z,41.08
2022-09-18T20:46:22.024Z,41.20
2022-09-18T20:48:53.078Z,40.83
2022-09-18T20:51:19.853Z,41.92
2022-09-18T20:53:46.527Z,41.88
2022-09-18T20:56:15.571Z,40.40
2022-09-18T20:58:42.499Z,41.63
2022-09-18T21:01:11.374Z,41.15
2022-09-18T21:03:40.529Z,41.40
2022-09-18T21:06:23.557Z,42.47
2022-09-18T21:08:53.629Z,42.78
2022-09-18T21:11:30.985Z,41.45
2022-09-18T21:14:00.817Z,41.42
2022-09-18T21:16:29.974Z,42.65
2022-09-18T21:18:59.323Z,43.58
2022-09-18T21:21:27.586Z,42.63
2022-09-18T21:24:02.171Z,42.75
2022-09-18T21:26:32.973Z,42.50
2022-09-18T21:29:05.175Z,42.30
2022-09-18T21:31:36.546Z,42.15
2022-09-18T21:34:04.506Z,43.22
2022-09-18T21:36:34.840Z,42.53
2022-09-18T21:39:01.349Z,42.90
2022-09-18T21:41:27.855Z,42.40
2022-09-18T21:43:57.494Z,43.50
2022-09-18T21:46:24.222Z,43.70
2022-09-18T21:48:54.398Z,43.00
2022-09-18T21:51:21.401Z,41.80
2022-09-18T21:53:48.352Z,41.28
2022-09-18T21:56:20.056Z,40.22
2022-09-18T21:58:47.821Z,38.90
2022-09-18T22:01:22.538Z,38.45
2022-09-18T22:03:52.261Z,38.42
2022-09-18T22:06:25.127Z,39.20
2022-09-18T22:08:54.728Z,38.25
2022-09-18T22:11:25.065Z,37.83
2022-09-18T22:13:52.650Z,38.45
2022-09-18T22:16:31.670Z,38.53
2022-09-18T22:18:58.866Z,39.45
2022-09-18T22:21:31.487Z,39.65
2022-09-18T22:24:06.727Z,38.88
2022-09-18T22:26:36.212Z,37.42
2022-09-18T22:29:05.803Z,38.42
2022-09-18T22:31:33.202Z,37.80
2022-09-18T22:34:00.469Z,38.53
2022-09-18T22:36:27.291Z,38.92
2022-09-18T22:38:54.771Z,38.78
2022-09-18T22:41:21.357Z,39.25
2022-09-18T22:43:48.183Z,40.05
2022-09-18T22:46:16.448Z,42.05
2022-09-18T22:48:43.630Z,47.85
2022-09-18T22:51:13.282Z,45.13
2022-09-18T22:53:45.735Z,44.97
2022-09-18T22:56:14.258Z,47.90
2022-09-18T22:58:41.982Z,47.88
2022-09-18T23:01:14.501Z,48.45
2022-09-18T23:03:41.833Z,49.72
2022-09-18T23:06:09.050Z,44.63
2022-09-18T23:08:37.399Z,45.20
2022-09-18T23:11:11.718Z,46.78
2022-09-18T23:13:39.951Z,42.50
2022-09-18T23:16:11.738Z,43.33
2022-09-18T23:18:38.474Z,40.53
2022-09-18T23:21:11.421Z,40.95
2022-09-18T23:23:40.057Z,40.72
2022-09-18T23:26:12.329Z,41.50
2022-09-18T23:28:41.795Z,40.45
2022-09-18T23:31:11.036Z,41.88
2022-09-18T23:33:38.713Z,40.58
2022-09-18T23:36:06.283Z,40.33
2022-09-18T23:38:33.154Z,40.00
2022-09-18T23:41:04.787Z,40.47
2022-09-18T23:43:33.031Z,37.78
2022-09-18T23:46:00.043Z,37.90
2022-09-18T23:48:27.555Z,35.83
2022-09-18T23:50:55.097Z,35.53
2022-09-18T23:53:23.229Z,36.17
2022-09-18T23:55:49.975Z,34.83
2022-09-18T23:58:17.265Z,34.72
